Abercarn, United Kingdom
Current Conditions -  °F | °C
As of 4:20 PM on Sunday 23 Nov 2014 (Local Time) from EGFF Reporting Station
Few Clouds Few Clouds  
Wind Chill:   Ceiling: Unl
Heat Index:   Visibility: 6mi
Dew Point:   Wind: 9mph
Humidity: 76%   Direction: 340°NNW
Pressure: 30.09"   Gusts: NA
Location:  51.65°N, 3.13°W
Report Text: EGFF 231620Z 34008KT 9999 FEW033 07/03 Q1019
Loading
Personal Weather Stations






























Interactive Weather Map New forecast layout! Learn more

10-Day Weather Forecast

Advertisements
Track Severe Weather on mobile